x

Pt Arena - 19nm North Of Point Arena, Ca (46014) Wave Buoy

6:50am - Tue 28th Apr 2015 All times are PDT. -7 hours from GMT.

  • Sig Wave height 5.2ft
  • Peak Period 13s
  • Average Period 7s
  • Wind
    9mph, 11mph gusts
  • Sea Temp 50°f
  • Sea Pressure 1017.8mb
  • Pt Arena - 19nm North Of Point Arena, Ca
  • Pt Arena - 19nm North Of Point Arena, Ca

More Historic Weather Station data

Upgrade to MSW Pro to gain access to the past 30 days of data for over 8000 Wavebouys and Weather Stations around the globe.

Join Pro

Comparision Forecast

View Surf forecast
   
Tue 04/28 6:50am 5ft 13s 7s 9 11 mph 1017.8mb 50f
5:50am 5ft 10s 6s 9 13 mph 1017.6mb 50f
4:50am 5ft 9s 6s 11 13 mph 1017.8mb 50f
3:50am 5.5ft 9s 6s 11
mph
1018.1mb 50f
2:50am 5.5ft 10s 6s 13 18 mph 1018.3mb 50f
1:50am 6ft 10s 6s 13 18 mph 1018.9mb 50f
12:50am 6ft 9s 6s 16 20 mph 1019.1mb 50f
Mon 04/27 11:50pm 5ft 9s 6s 13 18 mph 1019.1mb 50f
10:50pm 5.5ft 9s 6s 13 16 mph 1019.2mb 50f
9:50pm 5ft 10s 6s 16 18 mph 1018.9mb 50f
8:50pm 5ft 9s 6s 16 20 mph 1018.2mb 50f
7:50pm 5ft 11s 6s 16 18 mph 1017.4mb 50f
6:50pm 5ft 9s 6s 16 18 mph 1017.1mb 50f
5:50pm 5ft 8s 6s 13 18 mph 1016.8mb 50f
4:50pm 5ft 9s 6s 11 16 mph 1016.9mb 50f
3:50pm 5ft 10s 6s 16 18 mph - 50f
2:50pm 5ft 8s 6s 13 18 mph 1017.7mb 50f
1:50pm 5ft 8s 5s 16 20 mph 1017.9mb 50f
12:50pm 5ft 9s 5s 16 18 mph 1017.7mb 50f
11:50am 5ft 8s 6s 16 20 mph 1017.8mb 50f
10:50am 5ft 6s 5s 16 18 mph 1017.8mb 50f
9:50am 5ft 8s 5s 13 16 mph 1018.2mb 50f
8:50am 5ft 9s 6s 16 18 mph 1018.6mb 50f
7:50am 5ft 9s 6s 11 16 mph 1018.8mb 50f
6:50am 4.5ft 9s 6s 7 9 mph 1018.7mb 50f
5:50am 5ft 9s 6s 9
mph
1018.7mb 50f
4:50am 5ft 9s 6s 7
mph
1019.1mb 50f
3:50am 5ft 5s 5s 7 9 mph 1019.4mb 50f
2:50am 5ft 8s 5s 11
mph
1019.9mb 50f
1:50am 5ft 5s 5s 13
mph
1020.3mb 50f
12:50am 5ft 6s 5s 13 18 mph 1020.8mb 50f
Sun 04/26 11:50pm 5ft 8s 6s 11 16 mph 1021.1mb 50f
10:50pm 5ft 5s 6s 4 9 mph 1021.8mb 50f
9:50pm 5ft 8s 6s 7
mph
1022mb 50f
8:50pm 4.5ft 8s 6s 16 18 mph 1022mb 51f
7:50pm 4.5ft 8s 6s 9 11 mph 1022.1mb 52f
6:50pm 4ft 8s 6s 7 9 mph 1021.9mb 52f
5:50pm 4.5ft 15s 7s 4
mph
1022.4mb 51f
4:50pm 5ft 8s 7s 9
mph
1022.5mb 51f
3:50pm 4.5ft 10s 7s 9 11 mph 1023mb 51f
2:50pm 5ft 8s 7s 11 13 mph 1023.4mb 51f
1:50pm 5ft 9s 7s 9
mph
1023.6mb 51f
12:50pm 5ft 9s 7s 4 7 mph 1023.8mb 51f
11:50am 5ft 8s 7s 7 9 mph 1024mb 50f
10:50am 5ft 9s 7s 4
mph
1023.6mb 50f
9:50am 5ft 9s 7s 4 7 mph 1023.4mb 49f
8:50am 6ft 11s 7s 4 7 mph 1023mb 49f
7:50am 5.5ft 9s 7s 4
mph
1022mb 49f
6:50am 5.5ft 11s 7s 4 7 mph 1021.5mb 49f
5:50am 6ft 10s 7s 7
mph
1021mb 49f
4:50am 6ft 8s 7s 7
mph
1020.9mb 49f
3:50am 6ft 11s 7s 7 9 mph 1020.8mb 49f
2:50am 6ft 10s 7s 9
mph
1020.8mb 49f
1:50am 6ft 11s 7s 9 11 mph 1020.8mb 49f
12:50am 6.5ft 10s 7s 11 13 mph 1020.8mb 49f
Sat 04/25 11:50pm 7ft 10s 7s 13 16 mph 1020.3mb 49f
10:50pm 6.5ft 11s 6s 13 16 mph 1020.2mb 49f
9:50pm 8ft 11s 7s 18 22 mph 1019.8mb 49f
8:50pm 7ft 10s 6s 18 22 mph 1019.2mb 49f
7:50pm 8.5ft 11s 7s 16 20 mph 1018.9mb 49f
6:50pm 8.5ft 12s 6s 18 22 mph 1018.4mb 49f
5:50pm 8ft 13s 6s 20 25 mph 1017.8mb 49f
4:50pm 8ft 12s 7s 18 22 mph 1017.7mb 49f
3:50pm 8ft 11s 7s 18 20 mph 1017.7mb 49f
2:50pm 8ft 13s 7s 18 22 mph 1017.7mb 49f
1:50pm 7.5ft 12s 7s 16 20 mph 1017.5mb 49f
12:50pm 8ft 11s 8s 16 18 mph 1017.2mb 49f
11:50am 8ft 13s 8s 16 18 mph 1017mb 49f
10:50am 8ft 11s 7s 16 18 mph 1016.7mb 49f
9:50am 8ft 13s 7s 18 22 mph 1016.1mb 49f
8:50am 8ft 11s 7s 18 22 mph 1015.4mb 49f
7:50am 8.5ft 11s 7s 18 22 mph 1015mb 49f
6:50am 8ft 11s 7s 20 25 mph 1014.3mb 49f
5:50am 8ft 11s 8s 16 20 mph 1013.9mb 49f
4:50am 9ft 12s 8s 13 18 mph 1013.4mb 49f
3:50am 9ft 12s 8s 18 22 mph 1013.1mb 49f
2:50am 9ft 12s 9s 13 18 mph 1012.6mb 49f
1:50am 9ft 15s 9s 9 13 mph 1012.4mb 49f
12:50am 9ft 15s 10s 2 4 mph 1012.3mb 49f
Fri 04/24 11:50pm 9ft 14s 10s 2 7 mph 1012.4mb 49f
10:50pm 9ft 15s 10s 11 16 mph 1012.7mb 49f
9:50pm 10ft 15s 11s 11 16 mph 1013.3mb 49f
8:50pm 9ft 15s 11s 13 18 mph 1013.6mb 49f
7:50pm 9ft 15s 10s 7 9 mph 1014.4mb 49f
6:50pm 8.5ft 15s 10s 9 11 mph 1015.1mb 50f
5:50pm 8ft 16s 9s 4 7 mph 1015.8mb 50f
4:50pm 7ft 16s 9s 4 7 mph 1016.2mb 50f
3:50pm 6ft 11s 8s 7
mph
1016.6mb 51f